Share

Enterprise, MS (39330)

Amateur Station KF5MWE (KMSQUITM3) Elev 240 ft | 32.05 °N, 88.72 °W | Change Station

Current weather conditions updated 4 seconds ago

Clear
Clear
59.9 °F
Feels Like 59.9 °F
N
2.2
Wind Variable Wind from NE
Gusts 3.8 mph
Sunrise 6:22 AM
Sunset 7:26 PM
Moon Waning Gibbous

Today is forecast to be nearly the same temperature as yesterday. Periods of rain early.

Pressure 30.19 in
Visibility 10.0 miles
Clouds Clear
Dew Point 56 °F
Humidity 88%
Rainfall 0.00 in
Snow Depth Not available.
UV 0 out of 16
Pollen 8.50 out of 12
Air Quality Not available.
Flu Activity No Activity
METAR KMEI 180558Z AUTO 11004KT 10SM CLR 16/11 A3020 RMK AO2 SLP224 T01560111 10167 20139 402000044 50001

More Conditions Fewer Conditions

Pressure 30.19 in
Visibility 10.0 miles
Clouds Clear
Dew Point 56 °F
Humidity 88%
Rainfall 0.00 in
Snow Depth Not available.
UV 0 out of 16
Pollen 8.50 out of 12
Air Quality Not available.
Flu Activity No Activity
METAR KMEI 180558Z AUTO 11004KT 10SM CLR 16/11 A3020 RMK AO2 SLP224 T01560111 10167 20139 402000044 50001

More Conditions Fewer Conditions

10-Day Forecast

Almanac

Astronomy

Apr. 18, 2014 Rise Set
Actual Time 6:22 AM CDT 7:26 PM CDT
Civil Twilight 5:57 AM CDT 7:51 PM CDT
Nautical Twilight 5:27 AM CDT 8:21 PM CDT
Astronomical Twilight 4:56 AM CDT 8:52 PM CDT
Moon 11:03 PM CDT 8:52 AM CDT
Length of Visible Light 13h 54m
Length of Day
13h 03m
Tomorrow will be 1m 50s longer.
Waning Gibbous, 90% of the Moon is Illuminated
Today
Waning Gibbous
Apr 22
Last Quarter
Apr 29
New
May 6
First Quarter
May 14
Full

Today's Extremes

State Highs State Lows

Community

  • SUNRISE THROUGH THE TREES.
    SUNRISE THROUGH THE TREES.
  • Dog Wood Blossoms
    Dog Wood Blossoms
  • Morning Light
    Morning Light
  • New Day
    New Day
  • Lake Michigan Sunrise
    Lake Michigan Sunrise

WunderPhotos

Upload Photos

1,702,276 photos uploaded!

WunderBlogs® & News

Nearby

Snow Depth

Station Depth Elevation
No new snow has been reported.

Coastal Water Temperatures

Place Temperature
No Stations Reporting

Earthquake Activity

City Distance Mag. Time & Date
No recent earthquake activity has been reported nearby.
Minimum magnitude displayed is 2.5.

Nearby Weather Stations

Station Location Temp. Dew Point Humidity Wind Precip. Elev Updated Type
Amateur Station KF5MWE, Quitman, MS 59.9 °F 56 °F 88% NE  at  2.2 mph 0.00 in / hr 240 ft 1:10 AM CDT Rapid Fire
3.2 NW Meridian (Pine Springs Rd.), Meridian, MS 58.9 °F 55 °F 88% NE  at  1.0 mph 0.00 in / hr 354 ft 1:10 AM CDT Normal

Show More Stations Show Fewer Stations

What do you think?

We're not finished. Please let us know what you like, what you don't like, and what you are still missing.